• Join FlightAware (Why Join?)
  • Login
  • US Flag 
02:31PM EST


 

Airport Tracker/Info


-or-


 

Live Flight TrackerFlight Track Log ✈ DAL4888 ✈ 12-Oct-2013 ✈ KATL - KMYR

Flight Track Log - Related Links

Times and Time Zones

All times are in EDT time to prevent confusion due to time zone crossing. See the DAL4888 flight status page for this flight to view local times or setup timezone preferences in your user account.

Time Position Orientation Groundspeed Altitude Reporting Facility
EDT Latitude Longitude Course Direction KTS MPH feet Rate Location/Type
11:08AM 33.6333 -84.4833 239° Southwest 177 204 2,600  Level Atlanta TRACON
11:09AM 33.6000 -84.5500 239° Southwest 270 311 4,500 2,400 Climbing Atlanta TRACON
11:10AM 33.5333 -84.5833 203° Southwest 284 327 7,200 2,640 Climbing Atlanta TRACON
11:11AM 33.4572 -84.5244 147° Southeast 291 335 10,100 1,800 Climbing Atlanta Center
11:12AM 33.4533 -84.4172 92° East 271 312 11,200 1,200 Climbing Atlanta Center
11:13AM 33.4558 -84.2978 89° East 316 364 12,500 1,440 Climbing Atlanta Center
11:14AM 33.4706 -84.1783 82° East 349 402 14,100 1,500 Climbing Atlanta Center
11:15AM 33.4875 -84.0561 81° East 367 422 15,500 1,320 Climbing Atlanta Center
11:16AM 33.5061 -83.9342 80° East 372 428 16,800 1,200 Climbing Atlanta Center
11:17AM 33.5228 -83.8069 81° East 377 434 17,900 900 Climbing Atlanta Center
11:18AM 33.5411 -83.6775 80° East 387 445 18,700 900 Climbing Atlanta Center
11:19AM 33.5575 -83.5453 82° East 393 452 19,700 960 Climbing Atlanta Center
11:20AM 33.5714 -83.4131 83° East 399 459 20,700 900 Climbing Atlanta Center
11:21AM 33.5853 -83.2758 83° East 409 471 21,500 600 Climbing Atlanta Center
11:22AM 33.6011 -83.1508 81° East 409 471 21,900 480 Climbing Atlanta Center
11:24AM 33.6138 -83.0014 84° East  Level FlightAware Approximate
11:24AM 33.6319 -82.8636 84° East 433 498 23,000  Level Atlanta Center
11:25AM 33.6389 -82.7114 87° East 446 513 23,000  Level Atlanta Center
11:26AM 33.6456 -82.5592 87° East 454 522 23,000  Level Atlanta Center
11:27AM 33.6456 -82.4019 90° East 464 534 23,000  Level Atlanta Center
11:30AM 33.6603 -82.0367 87° East 459 528 23,000  Level Jacksonville Center
11:31AM 33.6633 -81.8844 89° East 459 528 23,000  Level Jacksonville Center
11:32AM 33.6661 -81.7322 89° East 459 528 23,000  Level Jacksonville Center
11:33AM 33.6689 -81.5750 89° East 459 528 23,000  Level Jacksonville Center
11:34AM 33.6714 -81.4203 89° East 459 528 23,000  Level Jacksonville Center
11:35AM 33.6733 -81.2528 89° East 454 522 23,000  Level Jacksonville Center
11:36AM 33.6756 -81.0981 89° East 459 528 23,000 -240 Level Jacksonville Center
11:37AM 33.6753 -80.9408 90° East 459 528 22,600 -600 Descending Jacksonville Center
11:38AM 33.6772 -80.8036 89° East 459 528 21,800 -900 Descending Jacksonville Center
11:39AM 33.6786 -80.6489 89° East 459 528 20,800 -1,020 Descending Jacksonville Center
11:40AM 33.6803 -80.4989 89° East 453 521 19,800 -1,140 Descending Jacksonville Center
11:41AM 33.6814 -80.3542 89° East 447 514 18,600 -1,260 Descending Jacksonville Center
11:42AM 33.6825 -80.2044 89° East 442 509 17,300 -1,440 Descending Jacksonville Center
11:43AM 33.6836 -80.0597 89° East 436 502 15,800 -1,320 Descending Jacksonville Center
11:44AM 33.6850 -79.9447 89° East 393 452 14,700 -1,080 Descending Jacksonville Center
11:45AM 33.6825 -79.8400 92° East 346 398 13,700 -1,080 Descending Jacksonville Center
11:46AM 33.6842 -79.7328 89° East 323 372 12,600 -1,380 Descending Jacksonville Center
11:47AM 33.6836 -79.6303 90° East 310 357 11,000 -1,620 Descending Jacksonville Center
11:48AM 33.6833 -79.5356 90° East 300 345 9,400 -1,560 Descending Jacksonville Center
11:49AM 33.6828 -79.4383 90° East 290 334 7,900 -1,500 Descending Jacksonville Center
11:50AM 33.6803 -79.3486 92° East 284 327 6,400 -1,500 Descending Jacksonville Center
11:51AM 33.6650 -79.2494 100° East 289 333 4,900 -1,500 Descending Jacksonville Center
11:52AM 33.6539 -79.1575 98° East 289 333 3,400 -960 Descending Jacksonville Center
11:53AM 33.6158 -79.0769 120° Southeast 272 313 3,000 -420 Descending Jacksonville Center
11:55AM 33.6667 -78.9167 90° East  Level FlightAware Approximate
12:02PM 33.6797 -78.9283 90° East  Level Estimated
12:03PM 33.6797 -78.9283 90° East  Level Estimated
12:04PM 33.6797 -78.9283 90° East  Level Estimated